Time;durP1;ratioP1;P1;durP2;ratioP2;P2;SDS_P1;SDS_P2;PMS_P1;PMS_P2;Temp;Humidity;BMP_temperature;BMP_pressure;BME280_temperature;BME280_humidity;BME280_pressure;Samples;Min_cycle;Max_cycle;Signal;HPM_P1;HPM_P2
2022/02/12 00:00:13;;;;;;;;;;;;;;;23.45;21.06;98359.59;5009730;28;2182;-71
2022/02/12 00:02:39;;;;;;;;;;;;;;;23.33;21.31;98357.50;4999362;28;953;-71
2022/02/12 00:05:05;;;;;;;;;;;;;;;23.06;21.38;98357.84;4999461;28;1057;-71
2022/02/12 00:07:31;;;;;;;;;;;;;;;22.53;22.14;98362.81;4998816;28;1119;-71
2022/02/12 00:09:56;;;;;;;;;;;;;;;22.61;22.33;98352.88;5005130;28;2451;-71
2022/02/12 00:12:22;;;;;;;;;;;;;;;22.88;21.77;98361.13;5017778;28;1705;-71
2022/02/12 00:14:47;;;;;;;;;;;;;;;23.13;21.46;98360.47;5001216;28;958;-71
2022/02/12 00:17:13;;;;;;;;;;;;;;;23.25;21.21;98362.56;5001111;28;1906;-71
2022/02/12 00:19:38;;;;;;;;;;;;;;;23.18;21.28;98362.78;5018256;28;2105;-71
2022/02/12 00:22:03;;;;;;;;;;;;;;;23.17;21.63;98361.19;5018607;28;1034;-71
2022/02/12 00:24:29;;;;;;;;;;;;;;;23.21;21.28;98366.75;5018528;28;981;-71
2022/02/12 00:26:54;;;;;;;;;;;;;;;22.68;21.94;98358.38;5018110;28;1251;-71
2022/02/12 00:29:20;;;;;;;;;;;;;;;22.32;22.32;98362.06;5017421;28;1984;-71
2022/02/12 00:31:45;;;;;;;;;;;;;;;22.86;21.74;98358.72;4998768;28;883;-71
2022/02/12 00:34:11;;;;;;;;;;;;;;;23.19;21.30;98363.56;4998691;28;961;-71
2022/02/12 00:36:36;;;;;;;;;;;;;;;23.29;21.35;98363.28;4998433;28;1902;-71
2022/02/12 00:39:05;;;;;;;;;;;;;;;23.25;21.20;98365.41;4998799;28;926;-71
2022/02/12 00:41:30;;;;;;;;;;;;;;;23.40;20.90;98358.09;5016602;28;1905;-71
2022/02/12 00:43:56;;;;;;;;;;;;;;;23.34;21.24;98354.19;5017829;28;919;-71
2022/02/12 00:46:21;;;;;;;;;;;;;;;22.68;21.92;98349.06;5018472;28;1005;-71
2022/02/12 00:48:47;;;;;;;;;;;;;;;22.47;22.17;98354.03;5018249;28;959;-71
2022/02/12 00:51:13;;;;;;;;;;;;;;;22.63;22.27;98344.72;5016110;28;2009;-71
2022/02/12 00:53:39;;;;;;;;;;;;;;;22.86;21.92;98353.03;5017985;28;934;-71
2022/02/12 00:56:05;;;;;;;;;;;;;;;23.12;21.33;98356.84;4982909;28;1977;-71
2022/02/12 00:58:30;;;;;;;;;;;;;;;23.17;21.37;98352.66;5017997;28;1024;-71
2022/02/12 01:00:55;;;;;;;;;;;;;;;23.24;21.17;98355.31;5004712;28;1711;-71
2022/02/12 01:03:21;;;;;;;;;;;;;;;23.08;21.54;98349.66;4976419;28;986;-71
2022/02/12 01:05:47;;;;;;;;;;;;;;;22.72;22.02;98353.41;4976547;28;981;-71
2022/02/12 01:08:12;;;;;;;;;;;;;;;22.49;22.19;98353.59;4960516;28;994;-71
2022/02/12 01:10:38;;;;;;;;;;;;;;;22.93;21.69;98357.75;4976461;28;2033;-71
2022/02/12 01:13:03;;;;;;;;;;;;;;;23.10;21.50;98355.69;4976024;28;1461;-71
2022/02/12 01:15:29;;;;;;;;;;;;;;;23.17;21.36;98354.72;4976323;28;879;-71
2022/02/12 01:17:54;;;;;;;;;;;;;;;23.18;21.23;98357.09;4976030;28;1906;-71
2022/02/12 01:20:20;;;;;;;;;;;;;;;22.74;22.07;98356.63;4980704;28;2254;-71
2022/02/12 01:22:48;;;;;;;;;;;;;;;22.40;22.26;98359.09;4984196;28;1818;-71
2022/02/12 01:25:14;;;;;;;;;;;;;;;22.51;22.17;98351.13;4976188;28;968;-71
2022/02/12 01:27:39;;;;;;;;;;;;;;;22.73;21.80;98345.69;4956593;29;1089;-71
2022/02/12 01:30:05;;;;;;;;;;;;;;;22.91;21.57;98350.94;4958276;28;2490;-71
2022/02/12 01:32:30;;;;;;;;;;;;;;;23.07;21.39;98350.91;4943493;28;1089;-71
2022/02/12 01:34:56;;;;;;;;;;;;;;;23.22;21.21;98357.81;4964742;28;1872;-71
2022/02/12 01:37:23;;;;;;;;;;;;;;;23.31;21.06;98348.63;4975211;28;1918;-71
2022/02/12 01:39:49;;;;;;;;;;;;;;;23.25;21.23;98356.88;4975908;28;1724;-71
2022/02/12 01:42:14;;;;;;;;;;;;;;;22.68;21.83;98364.03;4989785;28;1573;-71
2022/02/12 01:44:39;;;;;;;;;;;;;;;22.45;22.40;98372.75;4975778;28;1081;-71
2022/02/12 01:47:07;;;;;;;;;;;;;;;22.90;21.59;98366.34;4975691;28;1020;-71
2022/02/12 01:49:33;;;;;;;;;;;;;;;23.08;21.47;98369.53;4975685;28;1009;-71
2022/02/12 01:51:58;;;;;;;;;;;;;;;23.25;21.22;98368.25;4992783;28;1923;-71
2022/02/12 01:54:24;;;;;;;;;;;;;;;23.44;21.28;98374.25;4995134;28;994;-71
2022/02/12 01:56:49;;;;;;;;;;;;;;;23.20;20.95;98377.31;4978306;28;1919;-71
2022/02/12 01:59:15;;;;;;;;;;;;;;;22.79;21.76;98375.91;4996898;28;937;-71
2022/02/12 02:01:40;;;;;;;;;;;;;;;22.44;22.26;98371.16;5011904;28;1638;-71
2022/02/12 02:04:06;;;;;;;;;;;;;;;22.71;21.89;98380.19;5016529;28;972;-71
2022/02/12 02:06:32;;;;;;;;;;;;;;;22.93;21.61;98374.78;5016450;28;1186;-71
2022/02/12 02:09:03;;;;;;;;;;;;;;;23.27;21.16;98377.13;4998893;28;1159;-71
2022/02/12 02:11:29;;;;;;;;;;;;;;;23.28;21.16;98378.72;5002821;28;1989;-71
2022/02/12 02:13:55;;;;;;;;;;;;;;;23.15;21.31;98380.69;4997058;28;1201;-71
2022/02/12 02:16:20;;;;;;;;;;;;;;;22.99;21.38;98380.72;4996746;28;1911;-71
2022/02/12 02:18:46;;;;;;;;;;;;;;;22.51;22.02;98385.16;4996756;28;1055;-71
2022/02/12 02:21:11;;;;;;;;;;;;;;;22.54;22.02;98389.94;5007537;28;1719;-71
2022/02/12 02:23:38;;;;;;;;;;;;;;;22.90;21.73;98386.22;4965264;28;1390;-71
2022/02/12 02:26:04;;;;;;;;;;;;;;;23.08;21.50;98386.56;5016303;28;999;-71
2022/02/12 02:28:29;;;;;;;;;;;;;;;23.20;21.17;98385.81;4982676;28;1704;-71
2022/02/12 02:30:54;;;;;;;;;;;;;;;23.26;21.10;98392.56;4996493;28;1009;-71
2022/02/12 02:33:20;;;;;;;;;;;;;;;23.15;21.33;98392.03;4996766;28;918;-71
2022/02/12 02:35:46;;;;;;;;;;;;;;;22.69;21.83;98394.03;4979486;28;1090;-71
2022/02/12 02:38:13;;;;;;;;;;;;;;;22.46;22.08;98402.69;4996746;28;2128;-71
2022/02/12 02:40:39;;;;;;;;;;;;;;;22.80;21.94;98400.22;4979381;28;921;-71
2022/02/12 02:43:05;;;;;;;;;;;;;;;23.16;21.33;98405.00;4996468;28;905;-71
2022/02/12 02:45:31;;;;;;;;;;;;;;;23.13;21.18;98409.53;4996008;28;981;-71
2022/02/12 02:47:57;;;;;;;;;;;;;;;23.32;21.36;98401.34;5007123;28;1915;-71
2022/02/12 02:56:02;;;;;;;;;;;;;;;22.52;22.02;98400.91;5016153;28;991;-71
2022/02/12 02:58:33;;;;;;;;;;;;;;;22.88;21.51;98401.66;5000557;28;1913;-71
2022/02/12 03:00:59;;;;;;;;;;;;;;;23.13;21.24;98405.91;4996162;28;953;-71
2022/02/12 03:03:25;;;;;;;;;;;;;;;23.26;21.02;98397.44;4935964;29;1170;-71
2022/02/12 03:05:50;;;;;;;;;;;;;;;23.30;21.12;98410.28;4936025;29;974;-71
2022/02/12 03:08:16;;;;;;;;;;;;;;;22.82;21.72;98408.28;4936280;29;1770;-71
2022/02/12 03:10:41;;;;;;;;;;;;;;;22.34;22.32;98410.66;4936084;29;993;-71
2022/02/12 03:13:06;;;;;;;;;;;;;;;22.57;22.04;98414.56;4935592;29;1011;-71
2022/02/12 03:15:32;;;;;;;;;;;;;;;22.94;21.75;98420.97;4936024;29;1062;-71
2022/02/12 03:17:57;;;;;;;;;;;;;;;23.11;21.31;98425.44;4936119;29;1911;-71
2022/02/12 03:20:23;;;;;;;;;;;;;;;23.31;20.94;98431.78;4935919;29;1008;-71
2022/02/12 03:22:48;;;;;;;;;;;;;;;23.39;21.11;98430.31;4935853;29;984;-71
2022/02/12 03:25:14;;;;;;;;;;;;;;;22.94;21.44;98432.34;4935960;29;1034;-71
2022/02/12 03:27:39;;;;;;;;;;;;;;;22.61;21.98;98426.63;4935898;29;1721;-71
2022/02/12 03:30:05;;;;;;;;;;;;;;;22.51;21.90;98427.69;4935634;29;1014;-71
2022/02/12 03:32:30;;;;;;;;;;;;;;;22.99;21.62;98434.63;4936026;29;1030;-71
2022/02/12 03:34:56;;;;;;;;;;;;;;;22.94;21.65;98438.00;4935827;29;1004;-71
2022/02/12 03:37:26;;;;;;;;;;;;;;;23.16;21.34;98438.25;4935841;29;1979;-71
2022/02/12 03:39:51;;;;;;;;;;;;;;;23.25;21.11;98430.69;4944820;28;2055;-71
2022/02/12 03:42:17;;;;;;;;;;;;;;;23.19;21.26;98432.50;5014928;28;2032;-71
2022/02/12 03:44:43;;;;;;;;;;;;;;;22.95;21.21;98439.59;5015279;28;946;-71
2022/02/12 03:47:09;;;;;;;;;;;;;;;22.56;21.74;98435.66;5012138;28;1860;-71
2022/02/12 03:49:34;;;;;;;;;;;;;;;22.35;22.17;98437.75;4995646;28;1036;-71
2022/02/12 03:51:59;;;;;;;;;;;;;;;22.76;21.54;98433.56;4945257;28;957;-71
2022/02/12 03:54:25;;;;;;;;;;;;;;;22.99;21.35;98437.47;4995942;28;835;-71
2022/02/12 03:56:50;;;;;;;;;;;;;;;23.04;21.33;98431.25;4995348;28;1903;-72
2022/02/12 03:59:16;;;;;;;;;;;;;;;23.08;21.21;98435.63;5013393;28;1922;-71
2022/02/12 04:01:42;;;;;;;;;;;;;;;23.16;21.20;98439.09;4975730;28;972;-72
2022/02/12 04:04:07;;;;;;;;;;;;;;;23.18;20.87;98442.25;4977260;28;983;-71
2022/02/12 04:06:32;;;;;;;;;;;;;;;22.59;21.68;98446.94;4977462;28;1068;-71
2022/02/12 04:08:58;;;;;;;;;;;;;;;22.36;21.94;98449.88;4977313;28;1977;-71
2022/02/12 04:11:23;;;;;;;;;;;;;;;22.58;21.99;98444.50;4977422;28;1022;-71
2022/02/12 04:13:49;;;;;;;;;;;;;;;22.91;21.52;98441.75;4977080;28;1188;-72
2022/02/12 04:16:15;;;;;;;;;;;;;;;23.13;21.01;98440.75;4977172;28;1973;-71
2022/02/12 04:18:40;;;;;;;;;;;;;;;23.10;21.19;98440.84;4976912;28;1754;-71
2022/02/12 04:21:06;;;;;;;;;;;;;;;23.12;21.26;98444.03;4976977;28;986;-72
2022/02/12 04:23:31;;;;;;;;;;;;;;;23.26;20.96;98452.19;4977125;28;906;-72
2022/02/12 04:25:57;;;;;;;;;;;;;;;23.13;20.92;98451.31;4977017;28;975;-72
2022/02/12 04:28:22;;;;;;;;;;;;;;;22.87;21.25;98445.44;4946632;29;2011;-71
2022/02/12 04:30:48;;;;;;;;;;;;;;;22.79;21.58;98444.00;4922636;29;972;-71
2022/02/12 04:33:13;;;;;;;;;;;;;;;22.88;21.37;98438.53;4952458;29;1010;-71
2022/02/12 04:35:39;;;;;;;;;;;;;;;23.16;20.88;98432.56;4957788;29;1015;-71
2022/02/12 04:38:04;;;;;;;;;;;;;;;23.19;21.18;98426.81;4965694;28;1922;-71
2022/02/12 04:40:31;;;;;;;;;;;;;;;23.34;20.65;98445.06;4944750;28;1022;-71
2022/02/12 04:42:56;;;;;;;;;;;;;;;23.22;20.91;98447.84;4976933;28;1040;-72
2022/02/12 04:45:23;;;;;;;;;;;;;;;23.27;20.85;98439.59;4976764;28;975;-71
2022/02/12 04:47:48;;;;;;;;;;;;;;;23.01;20.89;98443.53;4976261;28;1779;-71
2022/02/12 04:50:14;;;;;;;;;;;;;;;22.72;21.32;98449.84;4976661;28;1038;-72
2022/02/12 04:52:40;;;;;;;;;;;;;;;22.71;21.67;98447.47;4976434;28;1177;-71
2022/02/12 04:55:06;;;;;;;;;;;;;;;22.90;21.34;98454.31;4976116;28;998;-71
2022/02/12 04:57:31;;;;;;;;;;;;;;;22.98;21.31;98452.91;4975961;28;2209;-71
2022/02/12 04:59:56;;;;;;;;;;;;;;;23.21;21.00;98457.59;5006900;28;1719;-72
2022/02/12 05:02:23;;;;;;;;;;;;;;;23.22;21.12;98460.00;5017712;28;921;-71
2022/02/12 05:04:49;;;;;;;;;;;;;;;23.33;20.91;98460.50;5017703;28;2058;-71
2022/02/12 05:07:14;;;;;;;;;;;;;;;23.34;20.40;98456.44;4998302;28;867;-71
2022/02/12 05:09:40;;;;;;;;;;;;;;;22.82;21.15;98448.00;4998298;28;909;-71
2022/02/12 05:12:06;;;;;;;;;;;;;;;22.50;21.64;98458.06;4996855;28;945;-71
2022/02/12 05:14:32;;;;;;;;;;;;;;;22.84;21.41;98463.34;4957219;28;1329;-71
2022/02/12 05:17:00;;;;;;;;;;;;;;;23.15;21.00;98474.38;4956668;28;1903;-71
2022/02/12 05:19:25;;;;;;;;;;;;;;;23.17;20.76;98469.06;4956941;29;961;-71
2022/02/12 05:21:51;;;;;;;;;;;;;;;23.16;21.07;98473.16;4937558;29;993;-71
2022/02/12 05:24:16;;;;;;;;;;;;;;;23.25;20.76;98481.81;4899305;29;1082;-71
2022/02/12 05:26:42;;;;;;;;;;;;;;;22.59;21.71;98483.81;4899838;29;977;-71
2022/02/12 05:29:07;;;;;;;;;;;;;;;22.57;21.45;98489.09;4903416;29;1495;-71
2022/02/12 05:31:32;;;;;;;;;;;;;;;22.60;21.71;98487.44;4889006;29;1552;-71
2022/02/12 05:33:58;;;;;;;;;;;;;;;22.85;21.34;98481.97;4889535;29;1500;-71
2022/02/12 05:36:23;;;;;;;;;;;;;;;23.06;20.93;98494.09;4890338;29;1911;-71
2022/02/12 05:38:49;;;;;;;;;;;;;;;23.23;20.85;98495.66;4885934;29;1464;-71
2022/02/12 05:41:15;;;;;;;;;;;;;;;23.31;20.64;98491.41;4889778;29;1293;-71
2022/02/12 05:43:40;;;;;;;;;;;;;;;22.84;21.01;98491.72;4890062;29;1508;-71
2022/02/12 05:46:06;;;;;;;;;;;;;;;22.46;21.77;98504.75;4888353;29;1486;-71
2022/02/12 05:48:31;;;;;;;;;;;;;;;22.34;22.11;98509.88;4890561;29;1507;-71
2022/02/12 05:50:57;;;;;;;;;;;;;;;23.01;21.15;98512.44;4889389;29;1656;-71
2022/02/12 05:53:22;;;;;;;;;;;;;;;23.04;21.12;98505.06;4915926;29;1606;-72
2022/02/12 05:55:48;;;;;;;;;;;;;;;23.24;20.81;98525.66;4955534;28;1608;-72
2022/02/12 05:58:13;;;;;;;;;;;;;;;23.25;20.94;98530.06;4964856;28;2180;-72
2022/02/12 06:00:39;;;;;;;;;;;;;;;23.32;20.79;98529.91;4947648;28;1534;-72
2022/02/12 06:03:05;;;;;;;;;;;;;;;23.26;20.95;98528.84;4987898;28;1488;-72
2022/02/12 06:05:30;;;;;;;;;;;;;;;22.72;21.64;98534.97;4996732;28;1566;-72
2022/02/12 06:07:56;;;;;;;;;;;;;;;22.41;21.75;98536.47;4996500;28;1431;-72
2022/02/12 06:10:21;;;;;;;;;;;;;;;22.68;21.63;98534.25;4996109;28;1511;-72
2022/02/12 06:12:47;;;;;;;;;;;;;;;22.94;21.25;98540.16;4997441;28;1512;-72
2022/02/12 06:15:12;;;;;;;;;;;;;;;23.08;20.91;98539.84;4997157;28;935;-72
2022/02/12 06:17:38;;;;;;;;;;;;;;;23.17;21.20;98542.88;4996888;28;2029;-72
2022/02/12 06:20:04;;;;;;;;;;;;;;;23.12;21.02;98551.91;4996754;28;1019;-72
2022/02/12 06:22:29;;;;;;;;;;;;;;;23.21;20.79;98563.47;4996731;28;1045;-72
2022/02/12 06:24:55;;;;;;;;;;;;;;;23.11;21.04;98565.31;4996456;28;960;-72
2022/02/12 06:27:20;;;;;;;;;;;;;;;22.75;21.56;98579.47;4996478;28;937;-72
2022/02/12 06:29:46;;;;;;;;;;;;;;;22.68;21.45;98573.94;4939149;28;956;-72
2022/02/12 06:32:11;;;;;;;;;;;;;;;22.64;21.67;98578.94;4955627;28;987;-72
2022/02/12 06:34:37;;;;;;;;;;;;;;;23.00;21.37;98578.13;4955649;28;877;-72
2022/02/12 06:37:03;;;;;;;;;;;;;;;23.13;21.03;98581.88;4955955;29;1914;-72
2022/02/12 06:39:28;;;;;;;;;;;;;;;23.26;21.05;98579.97;4955301;29;989;-72
2022/02/12 06:41:53;;;;;;;;;;;;;;;23.35;21.00;98574.44;4955278;29;977;-72
2022/02/12 06:44:19;;;;;;;;;;;;;;;23.27;21.02;98573.03;4955057;29;955;-72
2022/02/12 06:46:44;;;;;;;;;;;;;;;22.74;21.75;98582.75;4955584;29;1079;-72
2022/02/12 06:49:10;;;;;;;;;;;;;;;22.54;21.98;98585.63;4955531;28;954;-72
2022/02/12 06:51:36;;;;;;;;;;;;;;;22.84;21.67;98584.53;4955155;29;1014;-72
2022/02/12 06:54:03;;;;;;;;;;;;;;;22.99;21.34;98593.56;4955336;29;1398;-72
2022/02/12 06:56:28;;;;;;;;;;;;;;;23.06;21.38;98593.41;4916842;29;1919;-72
2022/02/12 06:58:53;;;;;;;;;;;;;;;23.19;21.36;98591.47;4917229;29;977;-72
2022/02/12 07:01:20;;;;;;;;;;;;;;;23.30;20.93;98591.22;4916646;29;1140;-72
2022/02/12 07:03:45;;;;;;;;;;;;;;;23.28;21.01;98594.50;4917278;29;1020;-72
2022/02/12 07:06:11;;;;;;;;;;;;;;;22.73;21.58;98592.50;4918174;29;882;-72
2022/02/12 07:08:36;;;;;;;;;;;;;;;22.60;22.11;98600.88;4936328;29;939;-72
2022/02/12 07:11:01;;;;;;;;;;;;;;;22.92;21.63;98607.94;4935678;29;973;-72
2022/02/12 07:13:27;;;;;;;;;;;;;;;23.09;21.31;98606.72;4956485;28;1082;-72
2022/02/12 07:15:54;;;;;;;;;;;;;;;23.17;21.24;98599.66;4974336;28;1244;-72
2022/02/12 07:18:21;;;;;;;;;;;;;;;23.32;21.05;98605.78;4974310;28;1906;-72
2022/02/12 07:20:46;;;;;;;;;;;;;;;23.48;20.86;98617.16;4974571;28;1077;-72
2022/02/12 07:23:12;;;;;;;;;;;;;;;23.02;21.40;98604.84;4974302;28;1060;-72
2022/02/12 07:25:38;;;;;;;;;;;;;;;22.69;21.77;98603.94;4974421;28;1007;-72
2022/02/12 07:28:03;;;;;;;;;;;;;;;22.75;21.84;98607.84;5005170;28;979;-72
2022/02/12 07:30:29;;;;;;;;;;;;;;;23.03;21.45;98599.97;5015976;28;1124;-72
2022/02/12 07:32:55;;;;;;;;;;;;;;;23.31;21.42;98610.66;5015522;28;1030;-72
2022/02/12 07:35:20;;;;;;;;;;;;;;;23.28;21.53;98611.53;5015888;28;868;-72
2022/02/12 07:37:46;;;;;;;;;;;;;;;23.37;21.17;98614.56;5000586;28;1910;-72
2022/02/12 07:40:15;;;;;;;;;;;;;;;22.76;21.92;98626.47;5019282;28;954;-72
2022/02/12 07:42:41;;;;;;;;;;;;;;;22.71;22.30;98631.88;5019412;28;951;-72
2022/02/12 07:45:07;;;;;;;;;;;;;;;22.82;21.88;98624.72;5019398;28;953;-72
2022/02/12 07:47:32;;;;;;;;;;;;;;;23.01;21.80;98620.28;4984588;28;1037;-72
2022/02/12 07:49:58;;;;;;;;;;;;;;;23.22;21.64;98653.06;5019142;28;924;-72
2022/02/12 07:52:23;;;;;;;;;;;;;;;23.34;21.41;98680.75;4997219;28;963;-72
2022/02/12 07:54:49;;;;;;;;;;;;;;;23.38;21.24;98650.25;4977486;28;1378;-72
2022/02/12 07:57:14;;;;;;;;;;;;;;;23.36;21.34;98674.63;4977270;28;1914;-72
2022/02/12 07:59:40;;;;;;;;;;;;;;;22.98;21.94;98689.25;4977393;28;1013;-72
2022/02/12 08:02:06;;;;;;;;;;;;;;;22.71;22.23;98703.59;4977805;28;1004;-72
2022/02/12 08:04:31;;;;;;;;;;;;;;;22.60;22.74;98708.66;4977736;28;1001;-72
2022/02/12 08:09:41;;;;;;;;;;;;;;;23.12;21.74;98727.91;4977393;28;1044;-72
2022/02/12 08:12:18;;;;;;;;;;;;;;;23.29;21.74;98737.28;4977443;28;958;-72
2022/02/12 08:14:46;;;;;;;;;;;;;;;22.96;21.97;98753.41;4948411;28;1048;-72
2022/02/12 08:17:11;;;;;;;;;;;;;;;22.66;22.43;98752.31;4977165;28;1977;-72
2022/02/12 08:19:37;;;;;;;;;;;;;;;22.63;22.36;98742.63;4977276;28;1024;-72
2022/02/12 08:22:04;;;;;;;;;;;;;;;23.11;21.78;98738.47;4977196;28;1004;-72
2022/02/12 08:24:30;;;;;;;;;;;;;;;23.47;21.30;98748.25;4995713;28;984;-72
2022/02/12 08:26:55;;;;;;;;;;;;;;;23.40;21.81;98764.19;5017941;28;1076;-72
2022/02/12 08:29:21;;;;;;;;;;;;;;;23.46;21.57;98755.16;4999991;28;964;-72
2022/02/12 08:31:46;;;;;;;;;;;;;;;22.97;22.06;98755.78;5018327;28;966;-72
2022/02/12 08:34:13;;;;;;;;;;;;;;;22.72;22.49;98778.94;5016926;28;1105;-72
2022/02/12 08:36:39;;;;;;;;;;;;;;;22.84;22.27;98791.69;5018617;28;1906;-72
2022/02/12 08:39:05;;;;;;;;;;;;;;;23.21;21.83;98793.44;5018078;28;1006;-73
2022/02/12 08:41:30;;;;;;;;;;;;;;;23.42;21.67;98791.38;5018455;28;932;-72
2022/02/12 08:43:56;;;;;;;;;;;;;;;22.86;22.39;98787.19;5018120;28;927;-72
2022/02/12 08:46:21;;;;;;;;;;;;;;;22.72;22.55;98790.28;5017735;28;877;-73
2022/02/12 08:48:47;;;;;;;;;;;;;;;22.53;22.87;98782.53;4999441;28;945;-72
2022/02/12 08:51:12;;;;;;;;;;;;;;;23.09;22.16;98786.34;5018193;28;966;-72
2022/02/12 08:53:38;;;;;;;;;;;;;;;23.22;21.76;98789.34;4999617;28;1019;-72
2022/02/12 08:56:04;;;;;;;;;;;;;;;23.22;21.80;98800.69;5017627;28;1111;-72
2022/02/12 08:58:30;;;;;;;;;;;;;;;23.30;21.66;98804.97;5018046;28;1989;-72
2022/02/12 09:00:55;;;;;;;;;;;;;;;23.10;21.75;98815.53;5017707;28;1030;-72
2022/02/12 09:03:21;;;;;;;;;;;;;;;22.62;22.78;98822.47;5017861;28;1018;-72
2022/02/12 09:05:46;;;;;;;;;;;;;;;22.64;22.64;98822.88;5017501;28;1656;-72
2022/02/12 09:08:12;;;;;;;;;;;;;;;22.90;22.18;98823.22;5017279;28;1363;-73
2022/02/12 09:10:38;;;;;;;;;;;;;;;23.07;21.91;98830.59;5016328;28;1584;-73
2022/02/12 09:13:03;;;;;;;;;;;;;;;23.12;22.12;98824.44;4999491;28;1496;-73
2022/02/12 09:15:29;;;;;;;;;;;;;;;23.31;22.04;98831.34;5016982;28;1622;-72
2022/02/12 09:17:54;;;;;;;;;;;;;;;22.86;22.43;98832.59;5017172;28;1910;-73
2022/02/12 09:20:20;;;;;;;;;;;;;;;22.58;22.66;98842.41;4975517;28;1531;-73
2022/02/12 09:22:45;;;;;;;;;;;;;;;22.55;23.00;98850.97;4975402;28;1571;-73
2022/02/12 09:25:12;;;;;;;;;;;;;;;23.03;22.18;98866.78;4959305;28;1571;-73
2022/02/12 09:27:37;;;;;;;;;;;;;;;22.96;22.29;98861.25;4940493;29;1651;-72
2022/02/12 09:30:04;;;;;;;;;;;;;;;23.15;22.05;98874.63;4946829;29;1438;-72
2022/02/12 09:32:29;;;;;;;;;;;;;;;23.38;21.70;98879.47;4939656;29;1760;-73
2022/02/12 09:34:55;;;;;;;;;;;;;;;23.37;21.79;98881.53;4945511;29;1516;-72
2022/02/12 09:37:20;;;;;;;;;;;;;;;23.00;22.22;98867.63;4947072;29;1914;-73
2022/02/12 09:39:46;;;;;;;;;;;;;;;22.60;22.74;98873.19;4930553;29;1551;-73
2022/02/12 09:42:11;;;;;;;;;;;;;;;22.44;22.92;98871.00;4945763;29;1631;-72
2022/02/12 09:44:38;;;;;;;;;;;;;;;22.98;22.22;98898.50;4926649;29;1271;-72
2022/02/12 09:47:18;;;;;;;;;;;;;;;23.06;22.13;98906.44;4946617;29;1563;-73
2022/02/12 09:49:43;;;;;;;;;;;;;;;23.16;21.89;98904.66;4943026;29;1470;-73
2022/02/12 09:52:12;;;;;;;;;;;;;;;23.21;21.98;98889.97;4962217;28;1612;-72
2022/02/12 09:54:37;;;;;;;;;;;;;;;23.06;22.18;98888.63;4946962;29;1479;-72
2022/02/12 09:57:04;;;;;;;;;;;;;;;22.52;22.88;98891.53;4945743;28;1981;-72
2022/02/12 09:59:30;;;;;;;;;;;;;;;22.50;22.65;98891.19;4970496;28;1449;-72
2022/02/12 10:01:55;;;;;;;;;;;;;;;22.99;22.15;98900.09;4959413;28;1145;-72
2022/02/12 10:04:21;;;;;;;;;;;;;;;22.98;22.10;98898.50;4975287;28;1059;-72
2022/02/12 10:06:47;;;;;;;;;;;;;;;23.32;21.67;98890.56;4975349;28;968;-72
2022/02/12 10:09:13;;;;;;;;;;;;;;;23.36;21.92;98901.81;4975248;28;1047;-72
2022/02/12 10:11:46;;;;;;;;;;;;;;;23.32;21.55;98896.22;4974945;28;934;-72
2022/02/12 10:14:15;;;;;;;;;;;;;;;23.10;22.09;98906.38;4958162;28;2026;-72
2022/02/12 10:16:51;;;;;;;;;;;;;;;22.50;22.75;98903.31;4955892;29;1907;-72
2022/02/12 10:19:17;;;;;;;;;;;;;;;22.39;22.89;98894.19;4898405;29;1648;-72
2022/02/12 10:22:01;;;;;;;;;;;;;;;22.83;22.42;98887.34;4898786;29;1023;-72
2022/02/12 10:24:46;;;;;;;;;;;;;;;23.16;21.99;98896.13;4853164;29;978;-72
2022/02/12 10:27:12;;;;;;;;;;;;;;;23.28;21.76;98889.81;4939045;29;982;-72
2022/02/12 10:29:37;;;;;;;;;;;;;;;23.27;22.06;98882.53;4955623;29;1191;-72
2022/02/12 10:32:03;;;;;;;;;;;;;;;23.32;21.61;98878.38;4955327;29;979;-72
2022/02/12 10:34:39;;;;;;;;;;;;;;;23.25;21.82;98884.19;4939929;29;979;-72
2022/02/12 10:37:04;;;;;;;;;;;;;;;23.02;21.95;98876.53;4907945;29;1907;-72
2022/02/12 10:39:30;;;;;;;;;;;;;;;22.48;22.90;98882.28;4939385;29;1019;-72
2022/02/12 10:42:04;;;;;;;;;;;;;;;22.24;23.02;98879.44;4955548;29;1065;-72
2022/02/12 10:44:31;;;;;;;;;;;;;;;22.78;22.53;98885.00;4955230;29;946;-72
2022/02/12 10:46:56;;;;;;;;;;;;;;;23.09;22.32;98887.75;4898184;29;1022;-73
2022/02/12 10:49:24;;;;;;;;;;;;;;;23.19;22.27;98892.41;4905643;29;1000;-72
2022/02/12 10:51:51;;;;;;;;;;;;;;;23.22;21.82;98888.72;4955175;28;942;-72
2022/02/12 10:54:19;;;;;;;;;;;;;;;23.38;21.80;98882.31;4939217;28;1043;-72
2022/02/12 10:56:54;;;;;;;;;;;;;;;23.46;21.67;98888.66;4939019;29;1919;-72
2022/02/12 10:59:21;;;;;;;;;;;;;;;22.99;22.15;98889.53;4955337;29;960;-72
2022/02/12 11:01:46;;;;;;;;;;;;;;;22.67;22.64;98890.06;4955306;29;963;-72
2022/02/12 11:04:12;;;;;;;;;;;;;;;22.53;22.71;98902.44;4955151;29;1069;-72
2022/02/12 11:06:38;;;;;;;;;;;;;;;22.98;22.33;98904.16;4955170;28;936;-72
2022/02/12 11:09:04;;;;;;;;;;;;;;;23.19;22.17;98920.81;4955118;29;994;-72
2022/02/12 11:11:33;;;;;;;;;;;;;;;23.19;22.00;98920.81;4959036;28;947;-72
2022/02/12 11:13:58;;;;;;;;;;;;;;;23.27;21.81;98922.28;4958857;28;1049;-72
2022/02/12 11:16:30;;;;;;;;;;;;;;;22.93;22.32;98930.22;4959097;28;1033;-72
2022/02/12 11:18:55;;;;;;;;;;;;;;;22.66;22.95;98933.88;5013765;28;1536;-72
2022/02/12 11:21:21;;;;;;;;;;;;;;;22.36;23.24;98949.72;4984456;28;1655;-72
2022/02/12 11:24:05;;;;;;;;;;;;;;;22.73;22.82;98953.59;5019267;28;1435;-72
2022/02/12 11:26:43;;;;;;;;;;;;;;;22.91;22.61;98961.06;5018148;28;1543;-72
2022/02/12 11:29:27;;;;;;;;;;;;;;;23.18;21.96;98961.78;4973436;28;1498;-72
2022/02/12 11:32:11;;;;;;;;;;;;;;;23.22;22.21;98965.38;4977728;28;1542;-71
2022/02/12 11:34:40;;;;;;;;;;;;;;;22.62;22.72;98976.47;4977842;28;1590;-71
2022/02/12 11:37:12;;;;;;;;;;;;;;;22.46;23.16;98981.19;4969511;28;2050;-72
2022/02/12 11:39:38;;;;;;;;;;;;;;;22.61;23.05;98985.41;4977601;28;1540;-71
2022/02/12 11:42:04;;;;;;;;;;;;;;;22.97;22.22;98990.56;4977478;28;1366;-71
2022/02/12 11:44:43;;;;;;;;;;;;;;;23.07;22.27;98998.09;4937508;28;1559;-72
2022/02/12 11:47:08;;;;;;;;;;;;;;;23.12;22.24;99006.13;4959496;28;1505;-71
2022/02/12 11:49:37;;;;;;;;;;;;;;;23.19;22.24;99003.13;4977475;28;1547;-72
2022/02/12 11:52:02;;;;;;;;;;;;;;;22.91;22.23;99006.47;4974820;28;1462;-71
2022/02/12 11:54:43;;;;;;;;;;;;;;;22.60;22.92;99009.34;4977134;28;1541;-71
2022/02/12 11:57:09;;;;;;;;;;;;;;;22.43;23.16;99011.19;4975897;28;1986;-71
2022/02/12 11:59:34;;;;;;;;;;;;;;;22.87;22.56;99017.84;4940492;28;1583;-72
2022/02/12 12:02:00;;;;;;;;;;;;;;;23.17;21.88;99019.81;4977389;28;1645;-71
2022/02/12 12:04:30;;;;;;;;;;;;;;;23.23;22.02;99012.41;4977324;28;1499;-72
2022/02/12 12:06:58;;;;;;;;;;;;;;;23.31;21.88;99011.06;4944864;28;1659;-71
2022/02/12 12:09:24;;;;;;;;;;;;;;;23.35;22.00;99008.94;4977296;28;1532;-72
2022/02/12 12:12:11;;;;;;;;;;;;;;;22.84;22.53;99016.66;4957924;29;1071;-72
2022/02/12 12:14:37;;;;;;;;;;;;;;;22.60;22.58;99032.03;4938594;29;1030;-71
2022/02/12 12:17:03;;;;;;;;;;;;;;;22.86;22.72;99028.38;4938786;29;1923;-71
2022/02/12 12:19:28;;;;;;;;;;;;;;;23.21;21.70;99023.41;4929471;29;1014;-71
2022/02/12 12:21:55;;;;;;;;;;;;;;;23.23;21.75;99029.44;4919104;29;945;-71
2022/02/12 12:24:23;;;;;;;;;;;;;;;23.36;21.72;99032.47;4919614;29;1042;-71
2022/02/12 12:26:49;;;;;;;;;;;;;;;23.12;21.83;99034.50;4919758;29;994;-71
2022/02/12 12:32:03;;;;;;;;;;;;;;;22.52;22.72;99030.50;4938657;29;973;-71
2022/02/12 12:34:29;;;;;;;;;;;;;;;22.82;22.45;99044.66;4938113;29;1384;-71
2022/02/12 12:36:56;;;;;;;;;;;;;;;23.16;21.91;99051.47;4938371;29;2002;-71
2022/02/12 12:39:26;;;;;;;;;;;;;;;23.22;21.82;99056.25;4892048;29;1162;-71
2022/02/12 12:41:54;;;;;;;;;;;;;;;23.29;21.79;99053.28;4936026;29;1001;-71
2022/02/12 12:44:19;;;;;;;;;;;;;;;23.30;21.80;99052.03;4938468;29;1009;-71
2022/02/12 12:46:45;;;;;;;;;;;;;;;23.24;21.83;99065.13;4956905;29;963;-71
2022/02/12 12:49:11;;;;;;;;;;;;;;;22.80;22.51;99058.50;4937033;29;977;-71
2022/02/12 12:51:37;;;;;;;;;;;;;;;22.51;22.80;99062.94;4957437;29;1137;-71
2022/02/12 12:54:02;;;;;;;;;;;;;;;22.83;22.19;99071.81;4957350;28;1134;-71
2022/02/12 12:56:28;;;;;;;;;;;;;;;23.03;21.91;99080.47;4925281;29;1003;-71
2022/02/12 12:59:03;;;;;;;;;;;;;;;23.11;22.09;99075.50;4957318;28;1968;-71
2022/02/12 13:01:28;;;;;;;;;;;;;;;23.16;21.77;99085.53;4957085;29;1047;-71
2022/02/12 13:04:00;;;;;;;;;;;;;;;23.26;21.78;99076.88;4957287;28;1112;-71
2022/02/12 13:06:26;;;;;;;;;;;;;;;22.74;22.04;99094.25;4937553;29;968;-71